Time;durP1;ratioP1;P1;durP2;ratioP2;P2;SDS_P1;SDS_P2;PMS_P1;PMS_P2;Temp;Humidity;BMP_temperature;BMP_pressure;BME280_temperature;BME280_humidity;BME280_pressure;Samples;Min_cycle;Max_cycle;Signal;HPM_P1;HPM_P2
2021/05/08 00:00:07;;;;;;;4.07;2.35;;;;;;;4.90;81.87;101567.97;6252540;28;20056;-78
2021/05/08 00:03:08;;;;;;;4.80;2.92;;;;;;;4.88;83.58;101561.97;6251384;28;20065;-78
2021/05/08 00:06:12;;;;;;;9.75;2.80;;;;;;;4.83;85.79;101559.44;6251277;28;20448;-78
2021/05/08 00:09:14;;;;;;;4.78;2.53;;;;;;;4.80;85.89;101564.69;6250898;28;20053;-78
2021/05/08 00:12:14;;;;;;;7.85;2.70;;;;;;;4.69;85.99;101566.59;6251710;28;20056;-78
2021/05/08 00:15:16;;;;;;;6.88;3.05;;;;;;;4.67;86.81;101567.50;6251385;28;20497;-78
2021/05/08 00:18:17;;;;;;;4.57;2.47;;;;;;;4.71;84.35;101566.56;6252103;28;20045;-78
2021/05/08 00:21:19;;;;;;;5.03;2.90;;;;;;;4.66;85.82;101563.19;6250961;28;20421;-78
2021/05/08 00:24:20;;;;;;;6.75;2.83;;;;;;;4.60;82.30;101555.50;6253025;28;20064;-78
2021/05/08 00:27:21;;;;;;;5.05;2.80;;;;;;;4.57;85.52;101561.59;6253279;28;20049;-78
2021/05/08 00:30:22;;;;;;;6.10;3.20;;;;;;;4.56;85.04;101560.72;6252646;28;20076;-78
2021/05/08 00:33:23;;;;;;;7.40;3.03;;;;;;;4.60;85.14;101563.28;6253295;28;20460;-78
2021/05/08 00:36:25;;;;;;;9.80;3.50;;;;;;;4.52;86.71;101566.00;6254499;28;20042;-78
2021/05/08 00:39:26;;;;;;;8.45;2.97;;;;;;;4.49;86.56;101566.03;6252528;28;20482;-78
2021/05/08 00:42:27;;;;;;;6.43;3.30;;;;;;;4.52;85.41;101558.19;6253004;28;20061;-78
2021/05/08 00:45:28;;;;;;;8.55;3.42;;;;;;;4.51;85.54;101556.47;6252363;28;20056;-78
2021/05/08 00:48:29;;;;;;;7.22;3.70;;;;;;;4.49;86.40;101561.69;6252589;28;20057;-78
2021/05/08 00:51:31;;;;;;;9.02;3.47;;;;;;;4.43;87.26;101561.78;6251856;28;20517;-79
2021/05/08 00:54:32;;;;;;;6.78;3.63;;;;;;;4.45;85.65;101559.16;6252092;28;20382;-78
2021/05/08 00:57:34;;;;;;;8.40;3.42;;;;;;;4.50;85.20;101562.59;6252449;28;20568;-78
2021/05/08 01:00:35;;;;;;;10.00;3.80;;;;;;;4.50;84.68;101558.22;6253006;28;20187;-78
2021/05/08 01:03:36;;;;;;;7.13;3.60;;;;;;;4.52;84.89;101564.25;6251452;28;20049;-78
2021/05/08 01:06:39;;;;;;;7.60;3.65;;;;;;;4.50;84.57;101559.97;6253267;28;20059;-78
2021/05/08 01:09:41;;;;;;;11.45;4.10;;;;;;;4.37;87.47;101566.25;6254403;28;20045;-78
2021/05/08 01:12:43;;;;;;;8.60;4.20;;;;;;;4.27;87.66;101558.56;6253324;28;20049;-79
2021/05/08 01:15:44;;;;;;;7.78;4.00;;;;;;;4.19;88.13;101559.56;6253009;28;20060;-78
2021/05/08 01:18:51;;;;;;;6.68;3.85;;;;;;;4.15;89.84;101563.94;6251597;28;20053;-79
2021/05/08 01:21:52;;;;;;;7.47;4.72;;;;;;;4.06;90.81;101553.66;6251611;28;20494;-77
2021/05/08 01:24:53;;;;;;;8.27;4.45;;;;;;;4.09;90.56;101569.22;6251164;28;20064;-78
2021/05/08 01:27:56;;;;;;;12.05;4.90;;;;;;;4.16;88.58;101570.00;6251590;28;20108;-78
2021/05/08 01:30:57;;;;;;;11.20;4.80;;;;;;;4.14;88.54;101575.22;6251244;28;20088;-79
2021/05/08 01:33:58;;;;;;;11.00;5.07;;;;;;;4.05;89.49;101571.00;6252997;28;20053;-78
2021/05/08 01:37:01;;;;;;;7.43;5.10;;;;;;;3.98;90.63;101574.56;6253810;28;20057;-78
2021/05/08 01:40:06;;;;;;;7.28;4.85;;;;;;;3.89;91.19;101581.63;6251286;28;20053;-77
2021/05/08 01:43:07;;;;;;;14.07;5.25;;;;;;;3.82;90.70;101578.25;6252043;28;20045;-79
2021/05/08 01:46:08;;;;;;;18.20;6.45;;;;;;;3.72;91.48;101585.25;6251689;28;20053;-78
2021/05/08 01:49:09;;;;;;;9.25;5.00;;;;;;;3.62;91.77;101575.00;6253761;28;20595;-78
2021/05/08 01:52:10;;;;;;;7.57;5.05;;;;;;;3.56;92.63;101576.78;6258998;28;20107;-78
2021/05/08 01:55:14;;;;;;;11.88;4.57;;;;;;;3.54;93.11;101570.75;6257406;28;20457;-78
2021/05/08 01:58:15;;;;;;;11.13;5.40;;;;;;;3.48;92.92;101573.41;6256608;28;20049;-77
2021/05/08 02:01:16;;;;;;;11.35;5.75;;;;;;;3.46;93.18;101571.72;6256086;28;20080;-78
2021/05/08 02:04:17;;;;;;;13.18;5.65;;;;;;;3.43;94.06;101574.34;6257374;28;20123;-79
2021/05/08 02:07:18;;;;;;;10.80;5.75;;;;;;;3.40;94.13;101571.75;6256740;28;20053;-78
2021/05/08 02:10:19;;;;;;;9.20;5.78;;;;;;;3.36;94.71;101573.56;6256933;28;20112;-79
2021/05/08 02:13:20;;;;;;;10.07;6.88;;;;;;;3.28;94.01;101565.84;6256376;28;20046;-78
2021/05/08 02:16:21;;;;;;;12.45;6.90;;;;;;;3.24;94.78;101571.94;6256721;28;20076;-79
2021/05/08 02:19:22;;;;;;;12.07;6.85;;;;;;;3.21;95.60;101568.50;6256837;28;20656;-78
2021/05/08 02:22:23;;;;;;;17.83;7.40;;;;;;;3.17;95.69;101559.88;6258841;28;20046;-78
2021/05/08 02:25:25;;;;;;;10.98;6.40;;;;;;;3.13;95.46;101562.50;6257047;28;20042;-79
2021/05/08 02:28:26;;;;;;;13.68;6.78;;;;;;;3.10;96.14;101554.78;6256599;28;20049;-79
2021/05/08 02:31:27;;;;;;;14.48;6.85;;;;;;;3.09;95.83;101566.00;6257800;28;20058;-78
2021/05/08 02:34:27;;;;;;;9.90;6.90;;;;;;;3.04;95.68;101563.44;6258787;28;20052;-77
2021/05/08 02:37:29;;;;;;;13.10;6.50;;;;;;;3.01;96.57;101559.16;6257163;28;20601;-79
2021/05/08 02:40:33;;;;;;;11.80;6.85;;;;;;;2.99;96.71;101565.22;6256789;28;20056;-78
2021/05/08 02:43:34;;;;;;;15.98;7.70;;;;;;;3.06;96.60;101569.50;6256121;28;20465;-77
2021/05/08 02:46:34;;;;;;;10.93;7.50;;;;;;;3.11;95.82;101561.69;6256435;28;20045;-78
2021/05/08 02:49:35;;;;;;;10.25;6.45;;;;;;;3.16;94.61;101560.75;6255925;28;20100;-78
2021/05/08 02:52:37;;;;;;;9.40;6.63;;;;;;;3.14;95.05;101557.31;6255954;28;20056;-79
2021/05/08 02:55:38;;;;;;;12.88;7.13;;;;;;;3.16;95.24;101570.28;6255182;28;20049;-78
2021/05/08 02:58:39;;;;;;;12.25;6.95;;;;;;;3.08;94.78;101562.56;6255929;28;20414;-78
2021/05/08 03:01:40;;;;;;;13.63;7.25;;;;;;;3.01;94.75;101568.69;6255098;28;20104;-78
2021/05/08 03:04:41;;;;;;;11.80;7.00;;;;;;;2.98;95.28;101566.97;6255233;28;20042;-79
2021/05/08 03:07:42;;;;;;;14.30;7.15;;;;;;;3.06;94.85;101566.91;6255212;28;20137;-78
2021/05/08 03:10:43;;;;;;;9.95;6.93;;;;;;;3.17;93.46;101572.00;6255485;28;20123;-78
2021/05/08 03:13:44;;;;;;;12.10;7.00;;;;;;;3.19;94.05;101568.53;6255434;28;20045;-78
2021/05/08 03:16:45;;;;;;;14.43;6.82;;;;;;;3.15;93.86;101573.75;6255989;28;20049;-78
2021/05/08 03:19:46;;;;;;;12.38;7.00;;;;;;;2.98;93.52;101566.97;6256326;28;20494;-78
2021/05/08 03:22:47;;;;;;;14.95;7.20;;;;;;;2.94;95.26;101569.59;6255726;28;20424;-79
2021/05/08 03:25:48;;;;;;;12.18;7.32;;;;;;;2.88;95.66;101567.06;6255843;28;20049;-78
2021/05/08 03:28:49;;;;;;;14.15;7.10;;;;;;;2.78;95.80;101563.69;6255870;28;20077;-78
2021/05/08 03:31:50;;;;;;;12.38;7.22;;;;;;;2.74;96.62;101554.22;6256346;28;20054;-77
2021/05/08 03:34:51;;;;;;;13.18;7.50;;;;;;;2.71;96.34;101557.69;6255886;28;20501;-78
2021/05/08 03:37:53;;;;;;;14.02;8.10;;;;;;;2.68;96.74;101554.25;6256429;28;20420;-79
2021/05/08 03:40:54;;;;;;;15.10;8.15;;;;;;;2.63;97.46;101556.88;6257147;28;20104;-79
2021/05/08 03:43:55;;;;;;;12.82;8.48;;;;;;;2.61;98.02;101557.78;6255729;28;20046;-78
2021/05/08 03:46:55;;;;;;;13.30;8.18;;;;;;;2.57;97.59;101564.72;6256063;28;20482;-78
2021/05/08 03:49:57;;;;;;;14.75;8.05;;;;;;;2.55;97.76;101558.69;6256472;28;20144;-78
2021/05/08 03:52:59;;;;;;;15.27;9.10;;;;;;;2.54;98.44;101564.72;6258829;28;20072;-78
2021/05/08 03:56:01;;;;;;;12.85;7.95;;;;;;;2.52;98.79;101558.69;6289364;23;20071;-79
2021/05/08 03:59:02;;;;;;;17.95;9.43;;;;;;;2.51;98.76;101554.38;6277121;28;20049;-79
2021/05/08 04:02:03;;;;;;;20.85;7.63;;;;;;;2.47;98.74;101563.91;6274095;28;20045;-79
2021/05/08 04:05:05;;;;;;;16.95;7.57;;;;;;;2.50;98.38;101558.72;6252235;28;20107;-79
2021/05/08 04:08:06;;;;;;;15.65;7.63;;;;;;;2.48;99.01;101567.38;6249151;28;20056;-80
2021/05/08 04:11:07;;;;;;;13.90;7.78;;;;;;;2.47;99.69;101563.91;6248160;28;20056;-76
2021/05/08 04:14:08;;;;;;;15.52;8.00;;;;;;;2.48;99.45;101564.78;6248444;28;20383;-79
2021/05/08 04:17:09;;;;;;;15.88;7.90;;;;;;;2.42;99.23;101572.63;6248361;28;20107;-79
2021/05/08 04:20:11;;;;;;;13.25;7.88;;;;;;;2.37;99.03;101570.06;6248500;28;20045;-79
2021/05/08 04:23:13;;;;;;;13.95;8.48;;;;;;;2.37;98.80;101575.25;6248309;28;20136;-79
2021/05/08 04:26:13;;;;;;;13.32;8.43;;;;;;;2.42;98.95;101577.81;6248200;28;20053;-76
2021/05/08 04:29:14;;;;;;;16.70;8.10;;;;;;;2.45;98.85;101580.34;6248407;28;20050;-79
2021/05/08 04:32:15;;;;;;;13.02;8.15;;;;;;;2.48;99.47;101577.75;6247996;28;20045;-78
2021/05/08 04:35:16;;;;;;;13.55;8.88;;;;;;;2.49;99.56;101576.88;6248813;28;20500;-76
2021/05/08 04:38:18;;;;;;;17.15;8.70;;;;;;;2.52;99.94;101587.25;6252466;28;20042;-79
2021/05/08 04:41:19;;;;;;;12.27;9.30;;;;;;;2.56;100.00;101577.72;6252836;28;20053;-77
2021/05/08 04:44:20;;;;;;;15.82;8.52;;;;;;;2.60;99.63;101575.09;6251881;28;20045;-80
2021/05/08 04:47:21;;;;;;;15.70;8.88;;;;;;;2.64;99.76;101575.94;6252112;28;20102;-78
2021/05/08 04:50:23;;;;;;;11.70;7.70;;;;;;;2.69;99.90;101581.94;6251861;28;20049;-78
2021/05/08 04:53:25;;;;;;;13.88;9.00;;;;;;;2.72;99.79;101585.34;6251761;28;20053;-78
2021/05/08 04:56:25;;;;;;;14.10;9.77;;;;;;;2.77;100.00;101578.41;6251560;28;20052;-79
2021/05/08 04:59:26;;;;;;;13.25;9.23;;;;;;;2.82;100.00;101583.56;6251357;28;20490;-78
2021/05/08 05:02:27;;;;;;;15.20;8.27;;;;;;;2.86;98.69;101592.16;6251401;28;20448;-78
2021/05/08 05:05:28;;;;;;;14.63;7.90;;;;;;;2.93;98.06;101597.31;6251665;28;20052;-79
2021/05/08 05:08:30;;;;;;;14.73;8.45;;;;;;;3.02;97.89;101591.19;6251584;28;20061;-79
2021/05/08 05:11:31;;;;;;;10.38;7.53;;;;;;;3.12;97.28;101595.41;6247759;28;20056;-79
2021/05/08 05:14:31;;;;;;;14.32;8.65;;;;;;;3.20;96.59;101593.63;6247829;28;20041;-79
2021/05/08 05:17:32;;;;;;;14.65;9.55;;;;;;;3.27;96.16;101590.09;6246997;28;20505;-77
2021/05/08 05:20:33;;;;;;;16.60;8.50;;;;;;;3.35;96.11;101600.38;6246930;28;20132;-76
2021/05/08 05:23:35;;;;;;;15.13;7.63;;;;;;;3.47;95.90;101589.03;6246078;28;20053;-76
2021/05/08 05:26:36;;;;;;;12.05;8.00;;;;;;;3.62;95.59;101599.25;6251781;28;20055;-79
2021/05/08 05:29:36;;;;;;;15.85;7.70;;;;;;;3.65;95.47;101599.22;6247562;28;20465;-77
2021/05/08 05:32:37;;;;;;;12.63;7.95;;;;;;;3.78;95.06;101597.34;6249302;28;20422;-79
2021/05/08 05:35:38;;;;;;;17.92;7.78;;;;;;;3.83;94.01;101598.16;6250955;28;20053;-78
2021/05/08 05:38:40;;;;;;;16.85;8.80;;;;;;;3.92;93.50;101598.03;6251219;28;20072;-79
2021/05/08 05:41:40;;;;;;;13.73;7.85;;;;;;;4.01;93.36;101600.53;6248300;28;20056;-78
2021/05/08 05:44:41;;;;;;;17.67;8.15;;;;;;;4.08;92.90;101602.16;6247469;28;20405;-79
2021/05/08 05:47:43;;;;;;;14.48;7.78;;;;;;;4.24;92.94;101597.63;6248210;28;20050;-79
2021/05/08 05:50:44;;;;;;;10.18;7.07;;;;;;;4.29;91.06;101605.38;6248880;28;20072;-78
2021/05/08 05:53:46;;;;;;;12.93;8.10;;;;;;;4.38;91.47;101602.63;6247704;28;20050;-78
2021/05/08 05:56:47;;;;;;;15.02;8.23;;;;;;;4.40;92.00;101600.00;6247626;28;20053;-78
2021/05/08 05:59:48;;;;;;;10.95;7.75;;;;;;;4.54;91.45;101598.94;6247732;28;20050;-79
2021/05/08 06:02:49;;;;;;;16.73;8.50;;;;;;;4.64;91.64;101586.66;6268247;28;20463;-78
2021/05/08 06:05:49;;;;;;;12.38;8.68;;;;;;;4.74;91.05;101596.03;6262041;28;20052;-78
2021/05/08 06:08:51;;;;;;;14.15;8.48;;;;;;;4.86;90.79;101599.31;6263241;28;20045;-78
2021/05/08 06:11:53;;;;;;;15.13;8.48;;;;;;;4.92;90.26;101604.44;6264463;28;20052;-79
2021/05/08 06:14:54;;;;;;;18.50;8.77;;;;;;;5.06;90.37;101602.47;6264276;28;20132;-80
2021/05/08 06:17:56;;;;;;;13.07;8.63;;;;;;;5.21;88.69;101606.56;6270237;28;20049;-78
2021/05/08 06:20:57;;;;;;;12.63;8.15;;;;;;;5.23;88.56;101608.25;6269255;28;20056;-78
2021/05/08 06:23:58;;;;;;;9.30;7.60;;;;;;;5.36;87.86;101595.88;6271978;28;20489;-77
2021/05/08 06:26:59;;;;;;;16.92;8.38;;;;;;;5.47;87.31;101596.53;6271829;28;20048;-78
2021/05/08 06:30:00;;;;;;;12.13;7.75;;;;;;;5.49;87.76;101597.34;6272345;28;20183;-78
2021/05/08 06:33:01;;;;;;;17.00;8.38;;;;;;;5.47;87.42;101595.66;6267317;28;20045;-77
2021/05/08 06:36:02;;;;;;;12.52;7.30;;;;;;;5.58;87.26;101596.31;6271601;28;20055;-79
2021/05/08 06:39:04;;;;;;;11.60;6.53;;;;;;;5.72;87.36;101598.66;6276501;28;20076;-79
2021/05/08 06:42:06;;;;;;;10.73;7.03;;;;;;;5.80;86.61;101599.38;6277442;28;20504;-76
2021/05/08 06:45:08;;;;;;;13.25;7.28;;;;;;;5.90;86.56;101597.44;6275765;28;20055;-76
2021/05/08 06:48:09;;;;;;;14.85;7.43;;;;;;;6.05;85.16;101597.16;6276445;28;20065;-78
2021/05/08 06:51:10;;;;;;;11.32;6.65;;;;;;;6.13;85.72;101590.00;6276505;28;20497;-78
2021/05/08 06:54:11;;;;;;;14.85;7.30;;;;;;;6.44;83.43;101591.94;6277669;28;20049;-78
2021/05/08 06:57:12;;;;;;;14.95;7.63;;;;;;;6.41;81.98;101594.66;6277301;28;20056;-76
2021/05/08 07:00:14;;;;;;;13.40;8.63;;;;;;;6.54;81.62;101590.84;6276371;28;20508;-78
2021/05/08 07:03:15;;;;;;;15.52;8.57;;;;;;;6.50;82.11;101594.44;6275687;28;20060;-78
2021/05/08 07:06:16;;;;;;;16.10;7.32;;;;;;;6.56;82.91;101596.91;6276285;28;20053;-76
2021/05/08 07:09:18;;;;;;;11.32;6.55;;;;;;;6.72;80.78;101584.34;6276298;28;20420;-76
2021/05/08 07:12:19;;;;;;;12.27;6.60;;;;;;;6.87;80.45;101586.59;6275637;28;20071;-77
2021/05/08 07:15:20;;;;;;;9.98;5.75;;;;;;;6.91;78.98;101587.38;6276558;28;20041;-76
2021/05/08 07:18:21;;;;;;;17.15;6.38;;;;;;;6.95;79.33;101589.00;6260705;28;20045;-76
2021/05/08 07:21:22;;;;;;;13.55;5.80;;;;;;;7.13;76.80;101588.56;6267681;28;20053;-76
2021/05/08 07:24:23;;;;;;;13.48;6.88;;;;;;;7.32;74.77;101581.94;6276645;28;20068;-77
2021/05/08 07:27:24;;;;;;;13.30;6.75;;;;;;;7.42;74.98;101584.31;6278782;28;20049;-77
2021/05/08 07:30:25;;;;;;;15.55;7.40;;;;;;;7.54;74.15;101577.00;6269551;28;20052;-76
2021/05/08 07:33:26;;;;;;;16.73;7.75;;;;;;;7.62;74.73;101582.88;6269087;28;20068;-76
2021/05/08 07:36:27;;;;;;;11.45;7.35;;;;;;;7.61;73.36;101575.91;6277358;28;20132;-77
2021/05/08 07:39:28;;;;;;;13.55;7.70;;;;;;;7.71;70.90;101576.53;6275711;28;20570;-76
2021/05/08 07:42:29;;;;;;;13.82;8.10;;;;;;;7.84;72.32;101567.41;6273706;28;20567;-76
2021/05/08 07:45:32;;;;;;;12.85;7.55;;;;;;;7.86;69.72;101560.41;6268858;28;20049;-76
2021/05/08 07:48:32;;;;;;;12.18;7.40;;;;;;;8.02;70.14;101554.72;6273495;28;20052;-76
2021/05/08 07:51:33;;;;;;;18.42;8.98;;;;;;;8.10;69.38;101553.56;6275693;28;20497;-76
2021/05/08 07:54:35;;;;;;;12.48;6.75;;;;;;;8.26;67.48;101553.94;6274164;28;20055;-76
2021/05/08 07:57:37;;;;;;;11.35;5.93;;;;;;;8.21;64.37;101552.38;6270061;28;20045;-76
2021/05/08 08:00:37;;;;;;;10.02;4.93;;;;;;;8.20;63.70;101555.91;6268628;28;20056;-76
2021/05/08 08:03:38;;;;;;;7.72;4.00;;;;;;;8.25;62.17;101547.00;6267602;28;20502;-76
2021/05/08 08:06:39;;;;;;;11.02;5.18;;;;;;;8.40;62.61;101550.94;6272969;28;20091;-76
2021/05/08 08:09:43;;;;;;;10.02;4.03;;;;;;;8.53;59.46;101539.16;6264896;28;20046;-77
2021/05/08 08:12:43;;;;;;;8.70;4.50;;;;;;;8.62;61.67;101544.09;6273969;28;20516;-76
2021/05/08 08:15:44;;;;;;;9.48;4.85;;;;;;;8.66;64.84;101539.63;6272407;28;20049;-76
2021/05/08 08:18:45;;;;;;;10.23;5.18;;;;;;;8.63;63.38;101543.22;6264862;28;20091;-77
2021/05/08 08:21:46;;;;;;;9.48;4.15;;;;;;;8.71;59.91;101540.34;6267064;28;20057;-76
2021/05/08 08:24:47;;;;;;;8.20;4.32;;;;;;;9.19;57.25;101541.38;6264014;28;20111;-75
2021/05/08 08:27:48;;;;;;;6.25;4.05;;;;;;;9.06;58.77;101539.16;6274132;28;20049;-76
2021/05/08 08:30:49;;;;;;;6.75;4.20;;;;;;;9.00;61.44;101536.75;6273563;28;20053;-76
2021/05/08 08:33:50;;;;;;;10.20;4.47;;;;;;;8.99;62.16;101544.66;6255886;28;20457;-76
2021/05/08 08:36:51;;;;;;;14.80;5.65;;;;;;;9.17;65.59;101538.78;6255720;28;20044;-76
2021/05/08 08:39:52;;;;;;;10.30;5.50;;;;;;;9.16;61.75;101542.31;6272034;28;20069;-76
2021/05/08 08:42:53;;;;;;;6.38;4.00;;;;;;;9.28;58.49;101531.41;6263859;28;20421;-77
2021/05/08 08:45:55;;;;;;;8.38;3.60;;;;;;;9.44;59.02;101530.84;6268484;28;20072;-75
2021/05/08 08:48:56;;;;;;;11.27;4.07;;;;;;;9.47;59.94;101528.97;6267606;28;20049;-76
2021/05/08 08:51:57;;;;;;;6.00;3.10;;;;;;;9.79;58.13;101525.16;6263665;28;20045;-75
2021/05/08 08:54:59;;;;;;;5.20;2.80;;;;;;;9.84;54.01;101520.59;6262468;28;20136;-76
2021/05/08 08:58:03;;;;;;;8.95;4.00;;;;;;;9.78;58.20;101520.00;6268369;28;20057;-76
2021/05/08 09:01:05;;;;;;;10.30;3.70;;;;;;;9.65;55.57;101512.56;6266789;28;20049;-75
2021/05/08 09:04:06;;;;;;;8.02;3.80;;;;;;;9.72;56.29;101509.69;6263180;28;20429;-76
2021/05/08 09:07:08;;;;;;;5.28;3.63;;;;;;;9.79;57.42;101504.16;6266252;28;20077;-76
2021/05/08 09:10:20;;;;;;;6.85;3.42;;;;;;;9.95;58.09;101514.97;6265883;28;20052;-75
2021/05/08 09:13:23;;;;;;;5.22;3.78;;;;;;;10.17;58.05;101507.06;6268622;28;20056;-76
2021/05/08 09:16:24;;;;;;;4.97;3.78;;;;;;;10.44;54.24;101494.63;6267466;28;20060;-76
2021/05/08 09:19:25;;;;;;;6.72;3.30;;;;;;;10.27;54.58;101499.75;6270731;28;20059;-76
2021/05/08 09:22:32;;;;;;;10.20;4.50;;;;;;;10.20;56.17;101498.22;6270777;28;20052;-76
2021/05/08 09:25:33;;;;;;;10.77;4.18;;;;;;;10.45;52.35;101491.13;6255430;28;20053;-76
2021/05/08 09:28:37;;;;;;;8.25;4.32;;;;;;;10.41;54.63;101490.38;6267518;28;20425;-75
2021/05/08 09:31:51;;;;;;;10.80;4.43;;;;;;;10.61;55.23;101481.66;6257979;28;20072;-75
2021/05/08 09:35:03;;;;;;;8.93;4.22;;;;;;;10.64;55.37;101484.19;6253540;28;20168;-75
2021/05/08 09:38:09;;;;;;;6.80;4.07;;;;;;;10.83;56.33;101473.72;6258568;28;20049;-75
2021/05/08 09:41:14;;;;;;;10.57;4.88;;;;;;;10.99;54.42;101476.56;6262015;28;20479;-74
2021/05/08 09:44:15;;;;;;;25.77;6.28;;;;;;;11.14;53.12;101473.25;6263553;28;20076;-71
2021/05/08 09:47:27;;;;;;;7.95;3.97;;;;;;;11.15;51.33;101474.13;6270901;28;20077;-75
2021/05/08 09:50:28;;;;;;;8.23;4.50;;;;;;;11.12;49.59;101453.19;6270608;28;20049;-75
2021/05/08 09:53:30;;;;;;;7.90;4.15;;;;;;;11.10;50.46;101452.41;6269967;28;20045;-75
2021/05/08 09:56:34;;;;;;;10.38;4.43;;;;;;;11.08;51.21;101454.25;6230796;22;20046;-79
2021/05/08 09:59:36;;;;;;;8.32;4.35;;;;;;;11.21;52.20;101446.66;6178532;28;20526;-79
2021/05/08 10:02:37;;;;;;;8.52;4.25;;;;;;;11.27;53.01;101438.53;6180686;28;20680;-80
2021/05/08 10:05:39;;;;;;;9.77;4.75;;;;;;;11.33;53.20;101431.19;6177981;28;20130;-80
2021/05/08 10:08:40;;;;;;;7.63;3.83;;;;;;;11.55;51.31;101431.06;6181411;28;20050;-79
2021/05/08 10:11:42;;;;;;;8.73;4.00;;;;;;;11.86;50.87;101429.66;6188743;28;20054;-79
2021/05/08 10:14:44;;;;;;;7.10;3.63;;;;;;;11.87;49.33;101428.72;6179375;28;20047;-78
2021/05/08 10:17:48;;;;;;;13.85;4.60;;;;;;;11.77;46.66;101414.28;6186842;28;20058;-77
2021/05/08 10:20:50;;;;;;;8.18;4.00;;;;;;;11.66;47.89;101415.59;6183891;28;20419;-78
2021/05/08 10:23:51;;;;;;;6.47;3.50;;;;;;;11.92;48.33;101405.66;6175214;28;20098;-77
2021/05/08 10:26:57;;;;;;;8.38;4.13;;;;;;;12.18;47.48;101407.03;6183188;28;20053;-78
2021/05/08 10:29:58;;;;;;;10.25;4.30;;;;;;;12.30;49.85;101405.53;6175032;28;20051;-78
2021/05/08 10:33:00;;;;;;;14.48;4.38;;;;;;;12.33;49.80;101392.22;6175593;28;20057;-79
2021/05/08 10:36:01;;;;;;;10.65;5.00;;;;;;;12.64;48.72;101399.44;6180756;28;20047;-78
2021/05/08 10:39:06;;;;;;;6.75;4.05;;;;;;;12.59;46.25;101375.94;6183318;28;20043;-79
2021/05/08 10:42:11;;;;;;;7.72;4.25;;;;;;;12.90;45.35;101379.63;6175461;28;20050;-77
2021/05/08 10:45:33;;;;;;;8.05;4.43;;;;;;;13.06;48.38;101384.91;6182805;28;20054;-78
2021/05/08 10:48:34;;;;;;;10.63;3.78;;;;;;;12.95;43.92;101378.44;6181562;28;20056;-78
2021/05/08 10:51:59;;;;;;;9.23;3.78;;;;;;;13.20;46.08;101379.75;6179311;28;20043;-78
2021/05/08 10:55:00;;;;;;;11.40;4.38;;;;;;;13.42;44.61;101372.38;6179062;28;20054;-78
2021/05/08 10:58:41;;;;;;;6.78;3.53;;;;;;;13.25;43.73;101369.81;6181888;28;20050;-77
2021/05/08 11:01:44;;;;;;;12.07;4.10;;;;;;;13.24;44.44;101360.19;6172638;28;20046;-78
2021/05/08 11:05:19;;;;;;;7.30;3.95;;;;;;;13.15;42.93;101344.84;6174478;28;20043;-78
2021/05/08 11:08:44;;;;;;;13.02;4.65;;;;;;;13.56;44.04;101353.13;6187404;28;20050;-79
2021/05/08 11:11:49;;;;;;;8.95;4.15;;;;;;;13.83;42.22;101347.22;6184073;28;20058;-79
2021/05/08 11:14:55;;;;;;;6.47;3.95;;;;;;;14.23;45.51;101345.78;6182238;28;20061;-76
2021/05/08 11:18:02;;;;;;;7.38;3.88;;;;;;;14.04;43.93;101346.00;6187069;28;20046;-78
2021/05/08 11:21:26;;;;;;;8.60;3.40;;;;;;;13.81;45.43;101343.84;6185798;28;20077;-78
2021/05/08 11:24:38;;;;;;;8.25;4.05;;;;;;;13.68;40.18;101335.75;6184912;28;20050;-78
2021/05/08 11:27:39;;;;;;;13.35;4.13;;;;;;;14.11;42.61;101330.63;6189232;28;20081;-78
2021/05/08 11:30:51;;;;;;;6.13;3.42;;;;;;;14.65;44.36;101323.84;6186642;28;20046;-78
2021/05/08 11:33:53;;;;;;;6.68;3.72;;;;;;;14.95;41.14;101320.28;6182578;28;20655;-78
2021/05/08 11:36:56;;;;;;;9.23;4.80;;;;;;;14.61;38.73;101314.41;6186953;28;20054;-79
2021/05/08 11:39:57;;;;;;;8.07;3.85;;;;;;;15.14;42.56;101301.44;6183601;28;20051;-77
2021/05/08 11:42:58;;;;;;;8.75;4.15;;;;;;;15.57;43.97;101293.34;6180864;28;20062;-77
2021/05/08 11:45:59;;;;;;;10.07;4.28;;;;;;;15.58;36.52;101298.56;6177376;28;20479;-75
2021/05/08 11:49:01;;;;;;;9.05;3.88;;;;;;;15.69;40.23;101284.63;6172936;28;20507;-78
2021/05/08 11:52:04;;;;;;;8.05;4.25;;;;;;;15.91;35.38;101278.75;6174341;28;20042;-76
2021/05/08 11:55:07;;;;;;;10.35;3.95;;;;;;;15.88;39.58;101278.94;6176315;28;20101;-76
2021/05/08 11:58:08;;;;;;;8.68;4.03;;;;;;;16.03;39.11;101271.75;6177847;28;20059;-76
2021/05/08 12:01:18;;;;;;;11.70;4.90;;;;;;;15.45;37.29;101256.13;6177758;28;20059;-76
2021/05/08 12:04:20;;;;;;;11.45;4.22;;;;;;;15.53;38.67;101255.59;6178697;28;20137;-77
2021/05/08 12:07:23;;;;;;;8.20;3.55;;;;;;;15.65;41.32;101246.03;6179987;28;20062;-77
2021/05/08 12:10:24;;;;;;;10.75;3.85;;;;;;;16.10;41.42;101246.53;6178982;28;20074;-77
2021/05/08 12:13:29;;;;;;;8.93;3.95;;;;;;;16.54;39.39;101238.16;6179048;28;20050;-76
2021/05/08 12:16:31;;;;;;;6.35;3.70;;;;;;;16.58;36.82;101236.09;6179293;28;20046;-77
2021/05/08 12:19:33;;;;;;;12.48;4.07;;;;;;;16.35;36.91;101227.13;6176955;28;20419;-76
2021/05/08 12:22:35;;;;;;;8.35;3.92;;;;;;;16.46;36.38;101224.56;6177389;28;20047;-76
2021/05/08 12:25:36;;;;;;;8.57;3.45;;;;;;;16.47;38.77;101228.91;6177135;28;20086;-76
2021/05/08 12:28:39;;;;;;;20.70;4.10;;;;;;;16.28;39.45;101215.25;6177083;28;20078;-76
2021/05/08 12:31:44;;;;;;;6.10;3.50;;;;;;;15.95;38.60;101217.47;6176870;28;20051;-77
2021/05/08 12:34:54;;;;;;;7.30;3.10;;;;;;;15.64;39.83;101215.19;6177130;28;20492;-76
2021/05/08 12:37:55;;;;;;;6.05;3.47;;;;;;;15.26;38.76;101207.09;6177136;28;20051;-76
2021/05/08 12:40:56;;;;;;;7.18;2.97;;;;;;;15.33;41.28;101211.06;6176583;28;20046;-76
2021/05/08 12:44:05;;;;;;;6.72;3.30;;;;;;;15.49;41.57;101206.47;6176396;28;20047;-76
2021/05/08 12:47:17;;;;;;;11.02;3.90;;;;;;;15.65;39.31;101201.84;6176237;28;20043;-76
2021/05/08 12:50:24;;;;;;;7.30;3.67;;;;;;;15.71;38.03;101203.22;6175499;28;20521;-75
2021/05/08 12:53:25;;;;;;;10.23;3.78;;;;;;;16.15;38.10;101184.28;6167313;28;20547;-76
2021/05/08 12:56:26;;;;;;;9.55;3.53;;;;;;;16.58;38.37;101183.03;6162952;28;20141;-76
2021/05/08 12:59:29;;;;;;;7.70;4.00;;;;;;;16.55;36.58;101180.63;6170845;28;20408;-76
2021/05/08 13:02:32;;;;;;;5.72;2.78;;;;;;;16.44;39.43;101179.59;6175046;28;20054;-76
2021/05/08 13:05:36;;;;;;;6.85;3.58;;;;;;;16.65;37.32;101171.03;6173669;28;20046;-76
2021/05/08 13:08:43;;;;;;;5.45;3.50;;;;;;;16.92;38.80;101166.41;6170080;28;20126;-76
2021/05/08 13:11:44;;;;;;;7.00;3.33;;;;;;;17.23;35.99;101149.06;6177490;28;20058;-76
2021/05/08 13:14:46;;;;;;;5.30;3.35;;;;;;;16.83;36.08;101159.13;6161038;28;20086;-77
2021/05/08 13:17:47;;;;;;;6.93;3.58;;;;;;;16.47;37.54;101157.28;6176556;28;20054;-77
2021/05/08 13:20:50;;;;;;;8.45;3.40;;;;;;;16.17;39.44;101142.59;6178498;28;20050;-77
2021/05/08 13:23:50;;;;;;;9.23;3.20;;;;;;;16.31;38.23;101140.78;6180948;28;20507;-76
2021/05/08 13:26:51;;;;;;;9.55;3.03;;;;;;;16.21;35.55;101132.59;6171128;28;20062;-77
2021/05/08 13:29:52;;;;;;;5.78;3.15;;;;;;;16.11;36.37;101131.56;6177451;28;20047;-77
2021/05/08 13:32:55;;;;;;;5.75;2.70;;;;;;;16.30;36.08;101128.44;6176975;28;20050;-78
2021/05/08 13:35:57;;;;;;;5.32;2.80;;;;;;;16.28;37.22;101127.72;6181540;28;20126;-78
2021/05/08 13:38:57;;;;;;;6.05;2.90;;;;;;;16.21;37.41;101129.94;6178251;28;20051;-76
2021/05/08 13:41:58;;;;;;;9.15;2.85;;;;;;;15.93;37.03;101115.97;6179628;28;20139;-76
2021/05/08 13:44:59;;;;;;;9.10;3.35;;;;;;;15.69;35.42;101109.75;6176017;28;20057;-77
2021/05/08 13:48:00;;;;;;;8.13;3.35;;;;;;;15.67;37.79;101109.03;6174902;28;20503;-76
2021/05/08 13:51:02;;;;;;;6.05;2.83;;;;;;;15.67;40.31;101106.38;6166044;28;20432;-76
2021/05/08 13:54:03;;;;;;;6.22;2.75;;;;;;;15.73;41.38;101096.19;6150181;29;20106;-76
2021/05/08 13:57:04;;;;;;;7.07;2.85;;;;;;;15.65;42.58;101105.63;6151586;28;20058;-77
2021/05/08 14:00:06;;;;;;;4.57;2.92;;;;;;;15.54;39.76;101095.72;6150657;29;20050;-76
2021/05/08 14:03:07;;;;;;;5.55;2.92;;;;;;;15.46;40.95;101083.00;6159696;28;20047;-76
2021/05/08 14:06:11;;;;;;;9.55;3.10;;;;;;;15.50;39.18;101085.44;6175264;28;20154;-77
2021/05/08 14:09:12;;;;;;;6.30;2.53;;;;;;;15.43;41.68;101083.19;6175851;28;20062;-77